sensor_id;sensor_type;location;lat;lon;timestamp;P1;durP1;ratioP1;P2;durP2;ratioP2
20008;SDS011;10165;42.662;23.260;2023-09-30T00:00:03;5.40;;;3.40;;
20008;SDS011;10165;42.662;23.260;2023-09-30T00:02:31;4.83;;;3.63;;
20008;SDS011;10165;42.662;23.260;2023-09-30T00:04:58;6.43;;;3.13;;
20008;SDS011;10165;42.662;23.260;2023-09-30T00:07:24;4.60;;;3.30;;
20008;SDS011;10165;42.662;23.260;2023-09-30T00:09:52;8.33;;;3.50;;
20008;SDS011;10165;42.662;23.260;2023-09-30T00:12:19;7.10;;;3.83;;
20008;SDS011;10165;42.662;23.260;2023-09-30T00:14:47;6.60;;;3.80;;
20008;SDS011;10165;42.662;23.260;2023-09-30T00:17:14;5.40;;;4.17;;
20008;SDS011;10165;42.662;23.260;2023-09-30T00:19:41;6.70;;;3.57;;
20008;SDS011;10165;42.662;23.260;2023-09-30T00:22:08;10.43;;;3.83;;
20008;SDS011;10165;42.662;23.260;2023-09-30T00:24:35;8.27;;;3.70;;
20008;SDS011;10165;42.662;23.260;2023-09-30T00:27:01;6.17;;;3.97;;
20008;SDS011;10165;42.662;23.260;2023-09-30T00:29:28;7.50;;;3.90;;
20008;SDS011;10165;42.662;23.260;2023-09-30T00:31:55;4.57;;;3.47;;
20008;SDS011;10165;42.662;23.260;2023-09-30T00:34:22;3.80;;;3.13;;
20008;SDS011;10165;42.662;23.260;2023-09-30T00:36:49;9.40;;;3.70;;
20008;SDS011;10165;42.662;23.260;2023-09-30T00:39:15;10.17;;;3.73;;
20008;SDS011;10165;42.662;23.260;2023-09-30T00:41:42;3.90;;;3.17;;
20008;SDS011;10165;42.662;23.260;2023-09-30T00:44:09;4.77;;;3.50;;
20008;SDS011;10165;42.662;23.260;2023-09-30T00:46:37;5.27;;;3.53;;
20008;SDS011;10165;42.662;23.260;2023-09-30T00:49:06;4.03;;;3.10;;
20008;SDS011;10165;42.662;23.260;2023-09-30T00:51:33;9.03;;;4.00;;
20008;SDS011;10165;42.662;23.260;2023-09-30T00:54:00;7.13;;;4.00;;
20008;SDS011;10165;42.662;23.260;2023-09-30T00:56:28;5.60;;;3.90;;
20008;SDS011;10165;42.662;23.260;2023-09-30T00:58:56;12.20;;;4.40;;
20008;SDS011;10165;42.662;23.260;2023-09-30T01:01:24;10.67;;;4.77;;
20008;SDS011;10165;42.662;23.260;2023-09-30T01:03:52;4.70;;;3.83;;
20008;SDS011;10165;42.662;23.260;2023-09-30T01:06:19;5.50;;;3.37;;
20008;SDS011;10165;42.662;23.260;2023-09-30T01:08:46;6.17;;;4.10;;
20008;SDS011;10165;42.662;23.260;2023-09-30T01:11:13;6.47;;;3.83;;
20008;SDS011;10165;42.662;23.260;2023-09-30T01:13:41;7.30;;;3.57;;
20008;SDS011;10165;42.662;23.260;2023-09-30T01:16:11;5.73;;;4.13;;
20008;SDS011;10165;42.662;23.260;2023-09-30T01:18:41;7.17;;;4.20;;
20008;SDS011;10165;42.662;23.260;2023-09-30T01:21:10;5.07;;;3.53;;
20008;SDS011;10165;42.662;23.260;2023-09-30T01:23:37;11.20;;;4.20;;
20008;SDS011;10165;42.662;23.260;2023-09-30T01:26:11;6.10;;;3.50;;
20008;SDS011;10165;42.662;23.260;2023-09-30T01:28:38;5.00;;;3.40;;
20008;SDS011;10165;42.662;23.260;2023-09-30T01:31:06;5.70;;;3.70;;
20008;SDS011;10165;42.662;23.260;2023-09-30T01:33:33;7.37;;;3.60;;
20008;SDS011;10165;42.662;23.260;2023-09-30T01:36:00;4.37;;;3.53;;
20008;SDS011;10165;42.662;23.260;2023-09-30T01:38:27;5.50;;;3.67;;
20008;SDS011;10165;42.662;23.260;2023-09-30T01:40:54;8.03;;;3.80;;
20008;SDS011;10165;42.662;23.260;2023-09-30T01:43:22;6.90;;;3.83;;
20008;SDS011;10165;42.662;23.260;2023-09-30T01:45:49;6.50;;;3.80;;
20008;SDS011;10165;42.662;23.260;2023-09-30T01:48:16;4.90;;;3.97;;
20008;SDS011;10165;42.662;23.260;2023-09-30T01:50:43;9.37;;;3.67;;
20008;SDS011;10165;42.662;23.260;2023-09-30T01:53:10;10.93;;;3.73;;
20008;SDS011;10165;42.662;23.260;2023-09-30T01:55:36;7.37;;;3.93;;
20008;SDS011;10165;42.662;23.260;2023-09-30T01:58:03;10.30;;;3.97;;
20008;SDS011;10165;42.662;23.260;2023-09-30T02:00:30;7.90;;;3.93;;
20008;SDS011;10165;42.662;23.260;2023-09-30T02:02:57;6.73;;;3.80;;
20008;SDS011;10165;42.662;23.260;2023-09-30T02:05:24;5.77;;;4.13;;
20008;SDS011;10165;42.662;23.260;2023-09-30T02:07:51;9.77;;;4.00;;
20008;SDS011;10165;42.662;23.260;2023-09-30T02:10:18;8.10;;;4.17;;
20008;SDS011;10165;42.662;23.260;2023-09-30T02:12:46;6.03;;;3.90;;
20008;SDS011;10165;42.662;23.260;2023-09-30T02:15:13;10.87;;;3.60;;
20008;SDS011;10165;42.662;23.260;2023-09-30T02:17:40;7.03;;;3.97;;
20008;SDS011;10165;42.662;23.260;2023-09-30T02:20:12;6.40;;;3.80;;
20008;SDS011;10165;42.662;23.260;2023-09-30T02:22:42;7.60;;;3.57;;
20008;SDS011;10165;42.662;23.260;2023-09-30T02:25:10;9.03;;;3.60;;
20008;SDS011;10165;42.662;23.260;2023-09-30T02:27:39;10.73;;;4.27;;
20008;SDS011;10165;42.662;23.260;2023-09-30T02:30:11;5.63;;;3.67;;
20008;SDS011;10165;42.662;23.260;2023-09-30T02:32:42;7.27;;;3.67;;
20008;SDS011;10165;42.662;23.260;2023-09-30T02:35:12;4.03;;;3.50;;
20008;SDS011;10165;42.662;23.260;2023-09-30T02:37:41;4.87;;;3.30;;
20008;SDS011;10165;42.662;23.260;2023-09-30T02:40:09;7.17;;;3.77;;
20008;SDS011;10165;42.662;23.260;2023-09-30T02:42:37;7.50;;;3.20;;
20008;SDS011;10165;42.662;23.260;2023-09-30T02:45:05;9.30;;;3.80;;
20008;SDS011;10165;42.662;23.260;2023-09-30T02:47:34;7.60;;;3.93;;
20008;SDS011;10165;42.662;23.260;2023-09-30T02:50:02;7.50;;;3.53;;
20008;SDS011;10165;42.662;23.260;2023-09-30T02:52:31;5.27;;;3.37;;
20008;SDS011;10165;42.662;23.260;2023-09-30T02:54:58;5.43;;;3.70;;
20008;SDS011;10165;42.662;23.260;2023-09-30T02:57:25;5.33;;;3.43;;
20008;SDS011;10165;42.662;23.260;2023-09-30T02:59:53;5.07;;;3.57;;
20008;SDS011;10165;42.662;23.260;2023-09-30T03:02:20;7.20;;;3.27;;
20008;SDS011;10165;42.662;23.260;2023-09-30T03:04:50;4.73;;;3.60;;
20008;SDS011;10165;42.662;23.260;2023-09-30T03:07:20;8.80;;;4.00;;
20008;SDS011;10165;42.662;23.260;2023-09-30T03:09:47;5.20;;;3.67;;
20008;SDS011;10165;42.662;23.260;2023-09-30T03:12:14;13.33;;;3.93;;
20008;SDS011;10165;42.662;23.260;2023-09-30T03:14:41;5.47;;;3.73;;
20008;SDS011;10165;42.662;23.260;2023-09-30T03:17:09;6.63;;;4.20;;
20008;SDS011;10165;42.662;23.260;2023-09-30T03:19:39;7.80;;;3.50;;
20008;SDS011;10165;42.662;23.260;2023-09-30T03:22:06;4.73;;;3.93;;
20008;SDS011;10165;42.662;23.260;2023-09-30T03:24:38;5.63;;;3.70;;
20008;SDS011;10165;42.662;23.260;2023-09-30T03:27:06;7.20;;;3.27;;
20008;SDS011;10165;42.662;23.260;2023-09-30T03:29:37;6.83;;;3.43;;
20008;SDS011;10165;42.662;23.260;2023-09-30T03:32:04;3.87;;;3.47;;
20008;SDS011;10165;42.662;23.260;2023-09-30T03:34:31;10.47;;;4.37;;
20008;SDS011;10165;42.662;23.260;2023-09-30T03:36:59;4.30;;;3.50;;
20008;SDS011;10165;42.662;23.260;2023-09-30T03:39:26;4.20;;;3.10;;
20008;SDS011;10165;42.662;23.260;2023-09-30T03:41:56;6.93;;;3.80;;
20008;SDS011;10165;42.662;23.260;2023-09-30T03:44:25;5.57;;;3.13;;
20008;SDS011;10165;42.662;23.260;2023-09-30T03:46:52;5.40;;;3.83;;
20008;SDS011;10165;42.662;23.260;2023-09-30T03:49:19;4.07;;;3.27;;
20008;SDS011;10165;42.662;23.260;2023-09-30T03:51:49;8.33;;;3.57;;
20008;SDS011;10165;42.662;23.260;2023-09-30T03:54:17;12.30;;;3.63;;
20008;SDS011;10165;42.662;23.260;2023-09-30T03:56:45;7.70;;;3.07;;
20008;SDS011;10165;42.662;23.260;2023-09-30T03:59:13;6.47;;;3.33;;
20008;SDS011;10165;42.662;23.260;2023-09-30T04:01:40;10.73;;;3.20;;
20008;SDS011;10165;42.662;23.260;2023-09-30T04:04:07;4.30;;;3.50;;
20008;SDS011;10165;42.662;23.260;2023-09-30T04:06:37;5.77;;;3.27;;
20008;SDS011;10165;42.662;23.260;2023-09-30T04:09:05;5.90;;;3.23;;
20008;SDS011;10165;42.662;23.260;2023-09-30T04:11:38;7.10;;;3.27;;
20008;SDS011;10165;42.662;23.260;2023-09-30T04:14:06;6.50;;;3.67;;
20008;SDS011;10165;42.662;23.260;2023-09-30T04:16:34;5.20;;;3.40;;
20008;SDS011;10165;42.662;23.260;2023-09-30T04:19:02;6.37;;;3.40;;
20008;SDS011;10165;42.662;23.260;2023-09-30T04:21:28;6.10;;;3.53;;
20008;SDS011;10165;42.662;23.260;2023-09-30T04:23:58;6.73;;;3.47;;
20008;SDS011;10165;42.662;23.260;2023-09-30T04:26:25;6.70;;;3.47;;
20008;SDS011;10165;42.662;23.260;2023-09-30T04:28:52;7.40;;;3.70;;
20008;SDS011;10165;42.662;23.260;2023-09-30T04:31:22;8.93;;;3.40;;
20008;SDS011;10165;42.662;23.260;2023-09-30T04:33:50;10.97;;;3.60;;
20008;SDS011;10165;42.662;23.260;2023-09-30T04:36:20;8.17;;;4.13;;
20008;SDS011;10165;42.662;23.260;2023-09-30T04:38:48;6.77;;;4.43;;
20008;SDS011;10165;42.662;23.260;2023-09-30T04:41:15;10.60;;;4.13;;
20008;SDS011;10165;42.662;23.260;2023-09-30T04:43:42;7.50;;;4.37;;
20008;SDS011;10165;42.662;23.260;2023-09-30T04:46:10;9.30;;;4.57;;
20008;SDS011;10165;42.662;23.260;2023-09-30T04:48:39;5.83;;;3.50;;
20008;SDS011;10165;42.662;23.260;2023-09-30T04:51:07;5.67;;;3.80;;
20008;SDS011;10165;42.662;23.260;2023-09-30T04:53:35;6.53;;;3.90;;
20008;SDS011;10165;42.662;23.260;2023-09-30T04:56:02;6.10;;;3.73;;
20008;SDS011;10165;42.662;23.260;2023-09-30T04:58:29;8.53;;;4.83;;
20008;SDS011;10165;42.662;23.260;2023-09-30T05:00:57;16.17;;;4.90;;
20008;SDS011;10165;42.662;23.260;2023-09-30T05:03:24;4.70;;;4.20;;
20008;SDS011;10165;42.662;23.260;2023-09-30T05:05:55;7.23;;;4.00;;
20008;SDS011;10165;42.662;23.260;2023-09-30T05:08:23;8.13;;;4.57;;
20008;SDS011;10165;42.662;23.260;2023-09-30T05:10:50;10.87;;;4.03;;
20008;SDS011;10165;42.662;23.260;2023-09-30T05:13:21;10.80;;;4.10;;
20008;SDS011;10165;42.662;23.260;2023-09-30T05:15:49;7.17;;;4.33;;
20008;SDS011;10165;42.662;23.260;2023-09-30T05:18:20;8.47;;;5.00;;
20008;SDS011;10165;42.662;23.260;2023-09-30T05:20:47;8.73;;;4.50;;
20008;SDS011;10165;42.662;23.260;2023-09-30T05:23:16;9.10;;;4.63;;
20008;SDS011;10165;42.662;23.260;2023-09-30T05:25:44;20.60;;;5.03;;
20008;SDS011;10165;42.662;23.260;2023-09-30T05:28:11;6.23;;;4.60;;
20008;SDS011;10165;42.662;23.260;2023-09-30T05:30:38;6.27;;;4.20;;
20008;SDS011;10165;42.662;23.260;2023-09-30T05:33:06;10.60;;;4.40;;
20008;SDS011;10165;42.662;23.260;2023-09-30T05:35:33;11.60;;;5.27;;
20008;SDS011;10165;42.662;23.260;2023-09-30T05:38:00;7.67;;;4.33;;
20008;SDS011;10165;42.662;23.260;2023-09-30T05:40:27;11.53;;;4.57;;
20008;SDS011;10165;42.662;23.260;2023-09-30T05:42:57;8.13;;;4.43;;
20008;SDS011;10165;42.662;23.260;2023-09-30T05:45:25;7.83;;;4.57;;
20008;SDS011;10165;42.662;23.260;2023-09-30T05:47:54;9.40;;;4.70;;
20008;SDS011;10165;42.662;23.260;2023-09-30T05:50:23;14.03;;;4.90;;
20008;SDS011;10165;42.662;23.260;2023-09-30T05:52:53;8.77;;;4.57;;
20008;SDS011;10165;42.662;23.260;2023-09-30T05:55:21;9.43;;;4.57;;
20008;SDS011;10165;42.662;23.260;2023-09-30T05:57:49;8.90;;;4.27;;
20008;SDS011;10165;42.662;23.260;2023-09-30T06:00:16;8.20;;;4.43;;
20008;SDS011;10165;42.662;23.260;2023-09-30T06:02:48;9.33;;;4.77;;
20008;SDS011;10165;42.662;23.260;2023-09-30T06:05:15;7.87;;;4.50;;
20008;SDS011;10165;42.662;23.260;2023-09-30T06:07:42;23.77;;;5.80;;
20008;SDS011;10165;42.662;23.260;2023-09-30T06:10:11;7.27;;;4.77;;
20008;SDS011;10165;42.662;23.260;2023-09-30T06:12:39;11.50;;;6.20;;
20008;SDS011;10165;42.662;23.260;2023-09-30T06:15:07;18.07;;;5.50;;
20008;SDS011;10165;42.662;23.260;2023-09-30T06:17:34;15.60;;;5.80;;
20008;SDS011;10165;42.662;23.260;2023-09-30T06:20:04;17.67;;;6.23;;
20008;SDS011;10165;42.662;23.260;2023-09-30T06:22:33;12.07;;;5.63;;
20008;SDS011;10165;42.662;23.260;2023-09-30T06:25:00;14.03;;;5.57;;
20008;SDS011;10165;42.662;23.260;2023-09-30T06:27:30;16.00;;;4.70;;
20008;SDS011;10165;42.662;23.260;2023-09-30T06:29:57;11.40;;;4.87;;
20008;SDS011;10165;42.662;23.260;2023-09-30T06:32:24;9.73;;;4.63;;
20008;SDS011;10165;42.662;23.260;2023-09-30T06:34:50;15.57;;;4.60;;
20008;SDS011;10165;42.662;23.260;2023-09-30T06:37:19;11.33;;;5.07;;
20008;SDS011;10165;42.662;23.260;2023-09-30T06:39:47;15.30;;;4.43;;
20008;SDS011;10165;42.662;23.260;2023-09-30T06:42:14;12.40;;;4.87;;
20008;SDS011;10165;42.662;23.260;2023-09-30T06:44:41;15.57;;;5.27;;
20008;SDS011;10165;42.662;23.260;2023-09-30T06:47:08;14.07;;;5.27;;
20008;SDS011;10165;42.662;23.260;2023-09-30T06:49:38;13.40;;;5.17;;
20008;SDS011;10165;42.662;23.260;2023-09-30T06:52:05;10.93;;;4.33;;
20008;SDS011;10165;42.662;23.260;2023-09-30T06:54:33;13.03;;;4.47;;
20008;SDS011;10165;42.662;23.260;2023-09-30T06:57:00;10.40;;;5.07;;
20008;SDS011;10165;42.662;23.260;2023-09-30T06:59:27;9.03;;;4.40;;
20008;SDS011;10165;42.662;23.260;2023-09-30T07:01:54;9.50;;;4.10;;
20008;SDS011;10165;42.662;23.260;2023-09-30T07:04:21;15.63;;;5.43;;
20008;SDS011;10165;42.662;23.260;2023-09-30T07:06:48;10.67;;;5.03;;
20008;SDS011;10165;42.662;23.260;2023-09-30T07:09:15;12.07;;;5.40;;
20008;SDS011;10165;42.662;23.260;2023-09-30T07:11:43;8.70;;;5.10;;
20008;SDS011;10165;42.662;23.260;2023-09-30T07:14:10;16.07;;;6.00;;
20008;SDS011;10165;42.662;23.260;2023-09-30T07:16:37;11.33;;;5.77;;
20008;SDS011;10165;42.662;23.260;2023-09-30T07:19:05;15.60;;;5.63;;
20008;SDS011;10165;42.662;23.260;2023-09-30T07:21:32;11.73;;;5.70;;
20008;SDS011;10165;42.662;23.260;2023-09-30T07:23:59;14.80;;;4.97;;
20008;SDS011;10165;42.662;23.260;2023-09-30T07:26:26;11.17;;;5.60;;
20008;SDS011;10165;42.662;23.260;2023-09-30T07:28:54;10.57;;;4.90;;
20008;SDS011;10165;42.662;23.260;2023-09-30T07:31:23;6.93;;;4.33;;
20008;SDS011;10165;42.662;23.260;2023-09-30T07:33:50;11.20;;;4.70;;
20008;SDS011;10165;42.662;23.260;2023-09-30T07:36:17;5.60;;;3.83;;
20008;SDS011;10165;42.662;23.260;2023-09-30T07:38:44;10.37;;;4.00;;
20008;SDS011;10165;42.662;23.260;2023-09-30T07:41:11;6.80;;;4.30;;
20008;SDS011;10165;42.662;23.260;2023-09-30T07:43:38;8.83;;;4.27;;
20008;SDS011;10165;42.662;23.260;2023-09-30T07:46:05;11.03;;;4.50;;
20008;SDS011;10165;42.662;23.260;2023-09-30T07:48:33;9.20;;;3.97;;
20008;SDS011;10165;42.662;23.260;2023-09-30T07:51:01;12.90;;;5.27;;
20008;SDS011;10165;42.662;23.260;2023-09-30T07:53:28;5.70;;;3.83;;
20008;SDS011;10165;42.662;23.260;2023-09-30T07:55:55;7.80;;;4.13;;
20008;SDS011;10165;42.662;23.260;2023-09-30T07:58:22;11.47;;;3.83;;
20008;SDS011;10165;42.662;23.260;2023-09-30T08:00:49;6.70;;;4.13;;
20008;SDS011;10165;42.662;23.260;2023-09-30T08:03:17;8.27;;;3.67;;
20008;SDS011;10165;42.662;23.260;2023-09-30T08:05:44;8.57;;;3.83;;
20008;SDS011;10165;42.662;23.260;2023-09-30T08:08:10;6.63;;;3.77;;
20008;SDS011;10165;42.662;23.260;2023-09-30T08:10:37;10.33;;;4.00;;
20008;SDS011;10165;42.662;23.260;2023-09-30T08:13:04;10.70;;;4.13;;
20008;SDS011;10165;42.662;23.260;2023-09-30T08:15:31;8.93;;;3.63;;
20008;SDS011;10165;42.662;23.260;2023-09-30T08:17:58;9.83;;;3.57;;
20008;SDS011;10165;42.662;23.260;2023-09-30T08:20:25;6.47;;;3.57;;
20008;SDS011;10165;42.662;23.260;2023-09-30T08:22:52;7.53;;;3.97;;
20008;SDS011;10165;42.662;23.260;2023-09-30T08:25:18;6.30;;;3.40;;
20008;SDS011;10165;42.662;23.260;2023-09-30T08:27:45;13.63;;;4.13;;
20008;SDS011;10165;42.662;23.260;2023-09-30T08:30:16;9.27;;;4.70;;
20008;SDS011;10165;42.662;23.260;2023-09-30T08:32:42;17.07;;;4.60;;
20008;SDS011;10165;42.662;23.260;2023-09-30T08:35:09;8.70;;;5.10;;
20008;SDS011;10165;42.662;23.260;2023-09-30T08:37:37;12.63;;;4.60;;
20008;SDS011;10165;42.662;23.260;2023-09-30T08:40:04;9.80;;;4.87;;
20008;SDS011;10165;42.662;23.260;2023-09-30T08:42:32;7.17;;;4.80;;
20008;SDS011;10165;42.662;23.260;2023-09-30T08:45:01;7.33;;;4.73;;
20008;SDS011;10165;42.662;23.260;2023-09-30T08:47:30;8.03;;;4.23;;
20008;SDS011;10165;42.662;23.260;2023-09-30T08:49:58;10.03;;;4.53;;
20008;SDS011;10165;42.662;23.260;2023-09-30T08:52:32;7.30;;;4.63;;
20008;SDS011;10165;42.662;23.260;2023-09-30T08:55:06;7.37;;;5.20;;
20008;SDS011;10165;42.662;23.260;2023-09-30T08:57:39;13.00;;;5.33;;
20008;SDS011;10165;42.662;23.260;2023-09-30T09:00:11;9.33;;;5.03;;
20008;SDS011;10165;42.662;23.260;2023-09-30T09:02:39;10.27;;;5.10;;
20008;SDS011;10165;42.662;23.260;2023-09-30T09:05:07;8.30;;;5.43;;
20008;SDS011;10165;42.662;23.260;2023-09-30T09:07:34;7.63;;;4.40;;
20008;SDS011;10165;42.662;23.260;2023-09-30T09:12:33;12.50;;;5.80;;
20008;SDS011;10165;42.662;23.260;2023-09-30T09:15:01;13.23;;;5.20;;
20008;SDS011;10165;42.662;23.260;2023-09-30T09:17:44;11.63;;;5.57;;
20008;SDS011;10165;42.662;23.260;2023-09-30T09:20:16;12.73;;;5.53;;
20008;SDS011;10165;42.662;23.260;2023-09-30T09:22:47;7.93;;;5.30;;
20008;SDS011;10165;42.662;23.260;2023-09-30T09:25:17;13.57;;;5.40;;
20008;SDS011;10165;42.662;23.260;2023-09-30T09:27:44;11.80;;;5.60;;
20008;SDS011;10165;42.662;23.260;2023-09-30T09:30:21;10.57;;;5.00;;
20008;SDS011;10165;42.662;23.260;2023-09-30T09:32:58;8.10;;;5.67;;
20008;SDS011;10165;42.662;23.260;2023-09-30T09:35:31;9.97;;;6.03;;
20008;SDS011;10165;42.662;23.260;2023-09-30T09:40:27;7.67;;;5.30;;
20008;SDS011;10165;42.662;23.260;2023-09-30T09:42:55;8.00;;;4.40;;
20008;SDS011;10165;42.662;23.260;2023-09-30T09:45:24;7.27;;;5.20;;
20008;SDS011;10165;42.662;23.260;2023-09-30T09:47:53;12.17;;;5.10;;
20008;SDS011;10165;42.662;23.260;2023-09-30T09:50:21;10.27;;;5.00;;
20008;SDS011;10165;42.662;23.260;2023-09-30T09:52:50;5.30;;;4.60;;
20008;SDS011;10165;42.662;23.260;2023-09-30T09:55:21;14.43;;;4.43;;
20008;SDS011;10165;42.662;23.260;2023-09-30T09:57:49;8.73;;;3.60;;
20008;SDS011;10165;42.662;23.260;2023-09-30T10:00:17;5.70;;;3.70;;
20008;SDS011;10165;42.662;23.260;2023-09-30T10:02:47;8.63;;;4.03;;
20008;SDS011;10165;42.662;23.260;2023-09-30T10:05:15;7.97;;;3.70;;
20008;SDS011;10165;42.662;23.260;2023-09-30T10:10:22;4.63;;;3.63;;
20008;SDS011;10165;42.662;23.260;2023-09-30T10:12:50;11.80;;;4.43;;
20008;SDS011;10165;42.662;23.260;2023-09-30T10:18:06;8.93;;;4.23;;
20008;SDS011;10165;42.662;23.260;2023-09-30T10:20:40;6.03;;;3.77;;
20008;SDS011;10165;42.662;23.260;2023-09-30T10:25:44;13.77;;;3.80;;
20008;SDS011;10165;42.662;23.260;2023-09-30T10:31:18;9.30;;;4.00;;
20008;SDS011;10165;42.662;23.260;2023-09-30T10:34:29;6.33;;;3.43;;
20008;SDS011;10165;42.662;23.260;2023-09-30T10:36:37;8.80;;;3.20;;
20008;SDS011;10165;42.662;23.260;2023-09-30T10:39:10;5.83;;;3.40;;
20008;SDS011;10165;42.662;23.260;2023-09-30T10:46:57;4.83;;;3.17;;
20008;SDS011;10165;42.662;23.260;2023-09-30T10:51:52;8.40;;;2.93;;
20008;SDS011;10165;42.662;23.260;2023-09-30T10:54:28;9.83;;;3.17;;
20008;SDS011;10165;42.662;23.260;2023-09-30T10:56:55;5.40;;;2.80;;
20008;SDS011;10165;42.662;23.260;2023-09-30T10:59:26;5.70;;;2.77;;
20008;SDS011;10165;42.662;23.260;2023-09-30T11:01:54;5.67;;;3.00;;
20008;SDS011;10165;42.662;23.260;2023-09-30T11:04:21;4.40;;;2.90;;
20008;SDS011;10165;42.662;23.260;2023-09-30T11:06:49;5.40;;;2.93;;
20008;SDS011;10165;42.662;23.260;2023-09-30T11:09:19;3.13;;;2.47;;
20008;SDS011;10165;42.662;23.260;2023-09-30T11:11:52;5.57;;;3.40;;
20008;SDS011;10165;42.662;23.260;2023-09-30T11:16:47;9.30;;;3.10;;
20008;SDS011;10165;42.662;23.260;2023-09-30T11:19:15;7.17;;;3.20;;
20008;SDS011;10165;42.662;23.260;2023-09-30T11:21:43;4.13;;;2.80;;
20008;SDS011;10165;42.662;23.260;2023-09-30T11:24:10;8.77;;;2.73;;
20008;SDS011;10165;42.662;23.260;2023-09-30T11:26:38;9.33;;;3.40;;
20008;SDS011;10165;42.662;23.260;2023-09-30T11:29:14;3.50;;;2.70;;
20008;SDS011;10165;42.662;23.260;2023-09-30T11:31:43;4.03;;;2.87;;
20008;SDS011;10165;42.662;23.260;2023-09-30T11:34:11;9.03;;;3.40;;
20008;SDS011;10165;42.662;23.260;2023-09-30T11:36:39;8.10;;;3.50;;
20008;SDS011;10165;42.662;23.260;2023-09-30T11:39:20;7.33;;;3.50;;
20008;SDS011;10165;42.662;23.260;2023-09-30T11:41:52;7.53;;;3.47;;
20008;SDS011;10165;42.662;23.260;2023-09-30T11:44:21;4.07;;;2.80;;
20008;SDS011;10165;42.662;23.260;2023-09-30T11:46:52;8.43;;;3.30;;
20008;SDS011;10165;42.662;23.260;2023-09-30T11:52:07;7.40;;;3.73;;
20008;SDS011;10165;42.662;23.260;2023-09-30T11:54:37;6.47;;;2.93;;
20008;SDS011;10165;42.662;23.260;2023-09-30T11:57:10;9.60;;;3.80;;
20008;SDS011;10165;42.662;23.260;2023-09-30T11:59:41;9.40;;;4.03;;
20008;SDS011;10165;42.662;23.260;2023-09-30T12:02:09;5.30;;;3.30;;
20008;SDS011;10165;42.662;23.260;2023-09-30T12:04:40;7.63;;;3.10;;
20008;SDS011;10165;42.662;23.260;2023-09-30T12:07:08;8.13;;;3.53;;
20008;SDS011;10165;42.662;23.260;2023-09-30T12:09:35;5.53;;;3.33;;
20008;SDS011;10165;42.662;23.260;2023-09-30T12:12:06;7.80;;;3.70;;
20008;SDS011;10165;42.662;23.260;2023-09-30T12:14:37;15.33;;;3.67;;
20008;SDS011;10165;42.662;23.260;2023-09-30T12:17:04;10.80;;;4.30;;
20008;SDS011;10165;42.662;23.260;2023-09-30T12:19:31;12.80;;;3.70;;
20008;SDS011;10165;42.662;23.260;2023-09-30T12:21:57;9.10;;;4.87;;
20008;SDS011;10165;42.662;23.260;2023-09-30T12:24:24;8.47;;;4.13;;
20008;SDS011;10165;42.662;23.260;2023-09-30T12:26:53;5.77;;;3.70;;
20008;SDS011;10165;42.662;23.260;2023-09-30T12:29:21;14.57;;;3.77;;
20008;SDS011;10165;42.662;23.260;2023-09-30T12:31:49;5.87;;;3.83;;
20008;SDS011;10165;42.662;23.260;2023-09-30T12:34:21;5.07;;;3.13;;
20008;SDS011;10165;42.662;23.260;2023-09-30T12:36:54;7.50;;;3.30;;
20008;SDS011;10165;42.662;23.260;2023-09-30T12:39:24;5.17;;;2.90;;
20008;SDS011;10165;42.662;23.260;2023-09-30T12:41:53;8.50;;;3.67;;
20008;SDS011;10165;42.662;23.260;2023-09-30T12:44:20;9.40;;;3.70;;
20008;SDS011;10165;42.662;23.260;2023-09-30T12:46:49;8.13;;;3.60;;
20008;SDS011;10165;42.662;23.260;2023-09-30T12:49:16;7.70;;;3.43;;
20008;SDS011;10165;42.662;23.260;2023-09-30T12:51:44;4.23;;;3.10;;
20008;SDS011;10165;42.662;23.260;2023-09-30T12:54:11;4.70;;;3.70;;
20008;SDS011;10165;42.662;23.260;2023-09-30T12:56:39;7.97;;;3.70;;
20008;SDS011;10165;42.662;23.260;2023-09-30T12:59:06;4.60;;;3.60;;
20008;SDS011;10165;42.662;23.260;2023-09-30T13:01:33;7.10;;;3.03;;
20008;SDS011;10165;42.662;23.260;2023-09-30T13:04:01;5.33;;;3.47;;
20008;SDS011;10165;42.662;23.260;2023-09-30T13:06:28;8.60;;;3.90;;
20008;SDS011;10165;42.662;23.260;2023-09-30T13:08:57;8.57;;;3.53;;
20008;SDS011;10165;42.662;23.260;2023-09-30T13:11:25;7.20;;;3.70;;
20008;SDS011;10165;42.662;23.260;2023-09-30T13:13:53;3.70;;;3.13;;
20008;SDS011;10165;42.662;23.260;2023-09-30T13:16:19;4.77;;;3.50;;
20008;SDS011;10165;42.662;23.260;2023-09-30T13:18:46;5.83;;;3.40;;
20008;SDS011;10165;42.662;23.260;2023-09-30T13:21:13;4.83;;;3.47;;
20008;SDS011;10165;42.662;23.260;2023-09-30T13:23:40;5.70;;;3.50;;
20008;SDS011;10165;42.662;23.260;2023-09-30T13:26:08;10.20;;;3.50;;
20008;SDS011;10165;42.662;23.260;2023-09-30T13:28:35;8.00;;;4.63;;
20008;SDS011;10165;42.662;23.260;2023-09-30T13:31:02;11.30;;;4.27;;
20008;SDS011;10165;42.662;23.260;2023-09-30T13:33:29;6.27;;;3.67;;
20008;SDS011;10165;42.662;23.260;2023-09-30T13:35:56;6.27;;;3.90;;
20008;SDS011;10165;42.662;23.260;2023-09-30T13:38:23;14.00;;;3.73;;
20008;SDS011;10165;42.662;23.260;2023-09-30T13:40:50;6.57;;;3.57;;
20008;SDS011;10165;42.662;23.260;2023-09-30T13:43:17;6.13;;;3.63;;
20008;SDS011;10165;42.662;23.260;2023-09-30T13:45:43;5.73;;;3.67;;
20008;SDS011;10165;42.662;23.260;2023-09-30T13:48:10;4.97;;;3.60;;
20008;SDS011;10165;42.662;23.260;2023-09-30T13:50:38;5.30;;;3.70;;
20008;SDS011;10165;42.662;23.260;2023-09-30T13:53:04;4.87;;;3.97;;
20008;SDS011;10165;42.662;23.260;2023-09-30T13:55:31;10.73;;;4.53;;
20008;SDS011;10165;42.662;23.260;2023-09-30T13:57:58;9.27;;;3.93;;
20008;SDS011;10165;42.662;23.260;2023-09-30T14:00:25;6.23;;;4.07;;
20008;SDS011;10165;42.662;23.260;2023-09-30T14:02:52;9.00;;;3.70;;
20008;SDS011;10165;42.662;23.260;2023-09-30T14:05:19;6.43;;;3.33;;
20008;SDS011;10165;42.662;23.260;2023-09-30T14:07:46;6.90;;;3.73;;
20008;SDS011;10165;42.662;23.260;2023-09-30T14:10:14;4.90;;;3.33;;
20008;SDS011;10165;42.662;23.260;2023-09-30T14:12:41;6.97;;;3.23;;
20008;SDS011;10165;42.662;23.260;2023-09-30T14:15:09;10.77;;;3.33;;
20008;SDS011;10165;42.662;23.260;2023-09-30T14:17:36;6.70;;;4.10;;
20008;SDS011;10165;42.662;23.260;2023-09-30T14:20:04;10.77;;;3.80;;
20008;SDS011;10165;42.662;23.260;2023-09-30T14:22:32;6.03;;;3.57;;
20008;SDS011;10165;42.662;23.260;2023-09-30T14:25:00;5.53;;;4.40;;
20008;SDS011;10165;42.662;23.260;2023-09-30T14:27:27;8.03;;;3.93;;
20008;SDS011;10165;42.662;23.260;2023-09-30T14:29:54;6.20;;;3.70;;
20008;SDS011;10165;42.662;23.260;2023-09-30T14:32:21;6.47;;;3.90;;
20008;SDS011;10165;42.662;23.260;2023-09-30T14:34:49;8.30;;;4.10;;
20008;SDS011;10165;42.662;23.260;2023-09-30T14:37:16;5.13;;;3.63;;
20008;SDS011;10165;42.662;23.260;2023-09-30T14:39:43;5.77;;;3.77;;
20008;SDS011;10165;42.662;23.260;2023-09-30T14:42:10;10.30;;;3.87;;
20008;SDS011;10165;42.662;23.260;2023-09-30T14:44:37;9.17;;;3.50;;
20008;SDS011;10165;42.662;23.260;2023-09-30T14:47:04;6.63;;;3.67;;
20008;SDS011;10165;42.662;23.260;2023-09-30T14:49:31;6.87;;;3.47;;
20008;SDS011;10165;42.662;23.260;2023-09-30T14:51:58;6.83;;;3.80;;
20008;SDS011;10165;42.662;23.260;2023-09-30T14:54:25;3.93;;;3.27;;
20008;SDS011;10165;42.662;23.260;2023-09-30T14:56:52;6.43;;;3.57;;
20008;SDS011;10165;42.662;23.260;2023-09-30T14:59:19;9.10;;;3.80;;
20008;SDS011;10165;42.662;23.260;2023-09-30T15:01:46;3.70;;;3.40;;
20008;SDS011;10165;42.662;23.260;2023-09-30T15:04:13;11.60;;;3.83;;